PST,Max TemperatureF,Mean TemperatureF,Min TemperatureF,Max Dew PointF,MeanDew PointF,Min DewpointF,Max Humidity, Mean Humidity, Min Humidity, Max Sea Level PressureIn, Mean Sea Level PressureIn, Min Sea Level PressureIn, Max VisibilityMiles, Mean VisibilityMiles, Min VisibilityMiles, Max Wind SpeedMPH, Mean Wind SpeedMPH, Max Gust SpeedMPH,PrecipitationIn, CloudCover, Events, WindDirDegrees
2012-12-1,52,49,46,46,45,42,93,82,71,29.73,29.57,29.32,10,9,5,23,12,30,0.54,7,Rain,159
2012-12-2,50,47,44,46,44,40,93,87,80,29.92,29.55,29.27,10,9,3,22,11,28,0.54,7,Rain,174
2012-12-3,53,50,46,46,44,43,93,82,71,30.04,29.94,29.68,10,9,4,18,10,23,0.48,8,Rain,171
2012-12-4,54,50,46,52,48,42,100,90,80,29.97,29.77,29.61,10,6,2,12,5,16,0.72,8,Rain,168
2012-12-5,50,42,33,41,37,34,100,81,61,30.26,30.20,30.00,10,6,0,12,1,14,0.03,4,Fog-Rain-Snow,330
2012-12-6,49,43,36,43,39,36,100,88,76,30.26,30.21,30.16,10,6,0,16,5,22,0.04,8,Fog-Rain,190
2012-12-7,49,44,39,44,41,36,92,81,70,30.24,30.17,30.11,10,10,9,14,7,18,0.02,7,Rain,203
2012-12-8,46,41,36,41,38,35,100,88,76,30.38,30.29,30.23,10,9,6,9,1,12,0.09,8,Rain,30
2012-12-9,46,43,40,45,41,37,100,93,86,30.40,30.37,30.34,10,6,2,8,3,12,0.07,8,Rain,133
2012-12-10,49,47,44,45,44,42,100,90,80,30.45,30.38,30.15,10,6,0,6,1,7,0.00,7,Fog,357
2012-12-11,46,42,37,45,41,36,100,92,83,30.10,29.77,29.63,10,7,0,16,5,22,0.17,7,Fog-Rain,197
2012-12-12,47,41,35,41,38,34,100,88,76,30.03,29.83,29.70,10,4,0,9,1,12,0.08,7,Fog-Rain,210
2012-12-13,43,39,35,39,38,35,100,91,82,30.06,30.00,29.86,10,4,0,8,2,,T,8,Fog-Rain,130
2012-12-14,45,39,33,40,36,33,100,91,82,29.99,29.91,29.83,10,6,1,7,1,8,0.22,7,Rain,141
2012-12-15,39,35,30,36,34,30,100,93,85,29.94,29.78,29.62,10,7,1,17,5,25,0.34,6,Rain-Snow,167
2012-12-16,49,41,32,45,39,32,100,93,86,29.85,29.53,29.14,10,7,3,23,9,32,0.87,8,Rain,177
2012-12-17,48,41,34,40,35,31,92,84,76,30.00,29.74,29.20,10,9,5,26,9,37,0.37,6,Rain,212
2012-12-18,40,37,34,35,33,30,96,91,85,30.06,30.01,29.97,10,8,1,15,9,19,0.08,7,Rain-Snow,180
2012-12-19,47,42,36,39,36,33,92,81,70,30.03,29.81,29.60,10,10,8,32,17,42,0.58,8,Rain,175
2012-12-20,47,39,30,39,36,30,100,88,76,29.83,29.74,29.60,10,8,1,25,9,38,0.65,7,Rain,170
2012-12-21,46,37,28,41,35,29,100,93,76,29.80,29.74,29.62,10,6,0,6,1,,0.12,7,Fog-Rain,111
2012-12-22,46,43,40,39,38,36,100,88,76,29.79,29.63,29.54,10,9,2,23,10,35,0.23,8,Rain,169
2012-12-23,43,39,35,40,37,35,93,85,76,29.91,29.75,29.62,10,8,3,18,6,25,0.48,8,Rain,173
2012-12-24,44,40,35,40,37,34,100,88,76,30.21,30.09,29.92,10,7,1,9,3,11,0.03,7,Rain,120
2012-12-25,41,39,37,39,37,35,100,93,85,30.01,29.77,29.68,10,6,2,16,6,23,0.66,8,Rain-Snow,114
2012-12-26,44,39,34,41,38,33,100,92,83,30.04,29.87,29.71,10,6,1,8,2,9,0.05,7,Rain,338
2012-12-27,42,38,33,38,36,32,100,91,82,30.20,30.14,30.04,10,3,0,7,1,8,0.00,7,Fog,330
2012-12-28,43,39,34,38,35,29,100,85,70,30.18,30.15,30.12,10,8,3,9,2,11,0.03,8,Rain,351
2012-12-29,38,34,30,35,31,28,100,85,70,30.25,30.20,30.16,10,10,7,6,1,8,T,8,,298
2012-12-30,44,34,24,35,30,25,100,77,53,30.33,30.28,30.23,10,5,0,9,3,11,T,3,Fog-Snow,1
2012-12-31,35,30,25,32,29,24,100,95,89,30.45,30.33,30.28,10,6,2,9,3,12,0.01,6,Snow,11